Time;durP1;ratioP1;P1;durP2;ratioP2;P2;SDS_P1;SDS_P2;PMS_P1;PMS_P2;Temp;Humidity;BMP_temperature;BMP_pressure;BME280_temperature;BME280_humidity;BME280_pressure;Samples;Min_cycle;Max_cycle;Signal;HPM_P1;HPM_P2
2022/02/04 00:24:50;;;;;;;0.30;0.30;;;;;;;;;;1833022;78;26289;-38
2022/02/04 00:27:21;;;;;;;0.20;0.20;;;;;;;;;;1831300;78;25646;-39
2022/02/04 00:29:59;;;;;;;0.20;0.20;;;;;;;;;;1830985;78;26329;-41
2022/02/04 00:32:19;;;;;;;0.10;0.10;;;;;;;;;;1835409;78;26276;-41
2022/02/04 00:34:50;;;;;;;0.13;0.13;;;;;;;;;;1835626;78;26806;-39
2022/02/04 00:37:29;;;;;;;0.10;0.10;;;;;;;;;;1830366;78;26244;-38
2022/02/04 00:39:57;;;;;;;0.13;0.13;;;;;;;;;;1835162;78;26368;-39
2022/02/04 00:42:17;;;;;;;0.70;0.35;;;;;;;;;;1832285;78;26350;-40
2022/02/04 00:44:44;;;;;;;0.20;0.20;;;;;;;;;;1837688;77;26428;-38
2022/02/04 00:47:17;;;;;;;0.23;0.20;;;;;;;;;;1827324;78;25702;-39
2022/02/04 00:50:12;;;;;;;0.10;0.10;;;;;;;;;;1836974;78;26389;-39
2022/02/04 00:54:49;;;;;;;0.17;0.17;;;;;;;;;;1837584;78;26857;-38
2022/02/04 01:06:30;;;;;;;0.10;0.10;;;;;;;;;;1837526;78;26229;-38
2022/02/04 01:27:13;;;;;;;0.20;0.20;;;;;;;;;;1837629;78;26816;-38
2022/02/04 01:29:53;;;;;;;0.30;0.30;;;;;;;;;;1831105;76;26784;-39
2022/02/04 01:32:09;;;;;;;0.40;0.40;;;;;;;;;;1836482;78;26843;-38
2022/02/04 01:34:36;;;;;;;0.28;0.28;;;;;;;;;;1835082;78;26220;-38
2022/02/04 01:37:03;;;;;;;0.15;0.15;;;;;;;;;;1839220;78;26388;-38
2022/02/04 01:39:31;;;;;;;0.80;0.20;;;;;;;;;;1837113;78;26252;-39
2022/02/04 01:42:00;;;;;;;0.10;0.10;;;;;;;;;;1839539;78;26197;-38
2022/02/04 01:44:28;;;;;;;0.23;0.10;;;;;;;;;;1833682;78;25929;-40
2022/02/04 01:46:56;;;;;;;0.68;0.28;;;;;;;;;;1833209;78;26327;-40
2022/02/04 01:49:24;;;;;;;0.10;0.10;;;;;;;;;;1838674;78;26731;-38
2022/02/04 01:51:51;;;;;;;0.13;0.13;;;;;;;;;;1834547;78;25667;-39
2022/02/04 01:54:19;;;;;;;0.60;0.30;;;;;;;;;;1840988;78;26689;-38
2022/02/04 01:56:46;;;;;;;0.20;0.20;;;;;;;;;;1838591;78;26237;-39
2022/02/04 01:59:14;;;;;;;0.10;0.10;;;;;;;;;;1830855;77;26934;-39
2022/02/04 02:01:42;;;;;;;0.10;0.10;;;;;;;;;;1830669;78;26286;-42
2022/02/04 02:04:12;;;;;;;0.20;0.20;;;;;;;;;;1832500;78;26486;-39
2022/02/04 02:06:43;;;;;;;0.15;0.13;;;;;;;;;;1836293;78;26338;-39
2022/02/04 02:09:11;;;;;;;0.10;0.10;;;;;;;;;;1826578;78;26362;-40
2022/02/04 02:11:38;;;;;;;0.20;0.20;;;;;;;;;;1832461;78;26221;-39
2022/02/04 02:14:10;;;;;;;0.10;0.10;;;;;;;;;;1814940;77;26739;-39
2022/02/04 02:33:35;;;;;;;0.20;0.20;;;;;;;;;;1835024;78;26335;-39
2022/02/04 02:57:13;;;;;;;0.17;0.17;;;;;;;;;;1837170;78;26789;-41
2022/02/04 03:00:34;;;;;;;0.20;0.20;;;;;;;;;;1817378;78;26442;-39
2022/02/04 03:02:06;;;;;;;0.05;0.05;;;;;;;;;;1823014;77;26284;-39
2022/02/04 03:04:33;;;;;;;0.20;0.20;;;;;;;;;;1836295;78;26165;-40
2022/02/04 03:07:00;;;;;;;0.00;0.00;;;;;;;;;;1832400;78;26510;-40
2022/02/04 03:09:28;;;;;;;0.10;0.10;;;;;;;;;;1807414;78;25340;-39
2022/02/04 03:11:55;;;;;;;0.10;0.10;;;;;;;;;;1837101;76;26249;-40
2022/02/04 03:14:22;;;;;;;0.10;0.10;;;;;;;;;;1820822;77;26330;-39
2022/02/04 03:16:50;;;;;;;0.10;0.10;;;;;;;;;;1832671;78;26280;-39
2022/02/04 03:19:18;;;;;;;0.20;0.20;;;;;;;;;;1837053;78;26201;-41
2022/02/04 03:21:47;;;;;;;0.30;0.10;;;;;;;;;;1840333;76;26841;-38
2022/02/04 03:24:18;;;;;;;1.00;0.10;;;;;;;;;;1836943;78;26433;-38
2022/02/04 03:26:54;;;;;;;0.10;0.10;;;;;;;;;;1836348;78;26784;-40
2022/02/04 03:29:26;;;;;;;0.00;0.00;;;;;;;;;;1834843;77;26320;-38
2022/02/04 03:31:52;;;;;;;1.17;0.17;;;;;;;;;;1812312;78;26336;-38
2022/02/04 03:34:17;;;;;;;0.20;0.20;;;;;;;;;;1832324;78;26260;-41
2022/02/04 03:36:45;;;;;;;0.10;0.10;;;;;;;;;;1828293;77;26264;-41
2022/02/04 03:39:12;;;;;;;0.10;0.10;;;;;;;;;;1832827;78;26278;-39
2022/02/04 03:41:39;;;;;;;0.45;0.10;;;;;;;;;;1831195;78;26205;-39
2022/02/04 03:44:07;;;;;;;0.10;0.10;;;;;;;;;;1833294;78;26276;-39
2022/02/04 03:46:34;;;;;;;0.10;0.10;;;;;;;;;;1828990;78;26269;-39
2022/02/04 03:49:02;;;;;;;0.10;0.10;;;;;;;;;;1836676;78;26334;-39
2022/02/04 03:51:29;;;;;;;0.10;0.10;;;;;;;;;;1837832;77;26282;-39
2022/02/04 03:53:56;;;;;;;0.10;0.10;;;;;;;;;;1819323;78;26344;-39
2022/02/04 03:56:24;;;;;;;0.10;0.10;;;;;;;;;;1829050;78;26347;-39
2022/02/04 03:58:51;;;;;;;0.10;0.10;;;;;;;;;;1814524;78;26270;-39
2022/02/04 04:01:19;;;;;;;0.23;0.23;;;;;;;;;;1837628;77;25640;-40
2022/02/04 04:03:48;;;;;;;0.10;0.10;;;;;;;;;;1831644;77;26230;-38
2022/02/04 04:06:16;;;;;;;0.57;0.25;;;;;;;;;;1805785;77;26290;-38
2022/02/04 04:08:44;;;;;;;0.28;0.10;;;;;;;;;;1835560;78;26336;-38
2022/02/04 04:11:13;;;;;;;0.20;0.20;;;;;;;;;;1837806;78;26600;-38
2022/02/04 04:13:40;;;;;;;0.53;0.17;;;;;;;;;;1827439;78;26445;-39
2022/02/04 04:16:08;;;;;;;0.28;0.28;;;;;;;;;;1833673;78;26342;-42
2022/02/04 04:18:35;;;;;;;0.10;0.10;;;;;;;;;;1837529;78;26282;-39
2022/02/04 04:21:02;;;;;;;0.10;0.10;;;;;;;;;;1835253;78;26271;-39
2022/02/04 04:23:30;;;;;;;0.25;0.10;;;;;;;;;;1835922;76;26279;-41
2022/02/04 04:25:57;;;;;;;0.10;0.10;;;;;;;;;;1831380;78;25689;-39
2022/02/04 04:28:24;;;;;;;0.15;0.15;;;;;;;;;;1837764;78;26263;-38
2022/02/04 04:30:52;;;;;;;0.20;0.20;;;;;;;;;;1822333;78;26264;-39
2022/02/04 04:33:19;;;;;;;0.10;0.10;;;;;;;;;;1829161;78;26209;-38
2022/02/04 04:35:46;;;;;;;0.10;0.10;;;;;;;;;;1810370;78;26703;-39
2022/02/04 04:41:05;;;;;;;0.20;0.20;;;;;;;;;;1822113;78;26344;-40
2022/02/04 04:43:38;;;;;;;0.10;0.10;;;;;;;;;;1814832;78;26409;-38
2022/02/04 05:29:25;;;;;;;1.17;0.20;;;;;;;;;;1833760;78;26833;-39
2022/02/04 05:31:53;;;;;;;0.30;0.30;;;;;;;;;;1834738;78;26783;-41
2022/02/04 05:34:21;;;;;;;0.17;0.17;;;;;;;;;;1831393;78;26224;-39
2022/02/04 05:36:58;;;;;;;0.23;0.23;;;;;;;;;;1839495;76;26272;-40
2022/02/04 05:39:24;;;;;;;0.30;0.30;;;;;;;;;;1836879;76;26303;-38
2022/02/04 05:41:49;;;;;;;0.20;0.20;;;;;;;;;;1834931;78;26418;-38
2022/02/04 05:44:16;;;;;;;0.30;0.30;;;;;;;;;;1825908;76;26724;-38
2022/02/04 05:47:05;;;;;;;1.75;0.20;;;;;;;;;;1839550;76;26287;-38
2022/02/04 05:49:30;;;;;;;0.20;0.20;;;;;;;;;;1840522;78;26186;-38
2022/02/04 05:52:10;;;;;;;0.80;0.40;;;;;;;;;;1839194;76;26779;-39
2022/02/04 05:57:15;;;;;;;1.10;0.33;;;;;;;;;;1824008;78;26400;-39
2022/02/04 06:02:42;;;;;;;0.30;0.30;;;;;;;;;;1824560;78;26906;-39
2022/02/04 06:05:20;;;;;;;0.35;0.35;;;;;;;;;;1808549;78;27112;-38
2022/02/04 06:08:04;;;;;;;0.85;0.30;;;;;;;;;;1829143;78;26641;-38
2022/02/04 06:13:13;;;;;;;0.20;0.20;;;;;;;;;;1821365;78;26278;-38
2022/02/04 06:23:35;;;;;;;0.20;0.20;;;;;;;;;;1820938;78;26372;-39
2022/02/04 06:26:02;;;;;;;0.30;0.28;;;;;;;;;;1815129;78;26372;-39
2022/02/04 06:28:30;;;;;;;5.83;0.30;;;;;;;;;;1820583;78;26260;-38
2022/02/04 06:30:57;;;;;;;0.35;0.35;;;;;;;;;;1813605;78;26366;-38
2022/02/04 06:33:24;;;;;;;0.40;0.40;;;;;;;;;;1835657;78;27319;-39
2022/02/04 06:35:52;;;;;;;1.75;0.40;;;;;;;;;;1835598;78;26569;-39
2022/02/04 06:38:19;;;;;;;0.40;0.40;;;;;;;;;;1849739;76;26229;-38
2022/02/04 06:40:46;;;;;;;1.05;0.53;;;;;;;;;;1810249;78;26395;-39
2022/02/04 06:43:13;;;;;;;1.27;0.40;;;;;;;;;;1838008;78;26236;-38
2022/02/04 06:45:41;;;;;;;0.55;0.30;;;;;;;;;;1837683;78;26250;-39
2022/02/04 06:48:09;;;;;;;0.30;0.30;;;;;;;;;;1837395;78;26249;-40
2022/02/04 06:50:36;;;;;;;2.47;0.40;;;;;;;;;;1830835;78;26774;-38
2022/02/04 06:53:05;;;;;;;0.70;0.40;;;;;;;;;;1835060;78;26273;-39
2022/02/04 06:55:33;;;;;;;1.37;0.40;;;;;;;;;;1834208;76;26259;-40
2022/02/04 06:58:02;;;;;;;0.40;0.40;;;;;;;;;;1822596;78;25785;-38
2022/02/04 07:00:30;;;;;;;2.20;0.40;;;;;;;;;;1832708;78;26922;-39
2022/02/04 07:02:57;;;;;;;0.40;0.40;;;;;;;;;;1837249;78;26308;-38
2022/02/04 07:05:25;;;;;;;0.62;0.30;;;;;;;;;;1839596;78;26351;-40
2022/02/04 07:08:06;;;;;;;1.17;0.50;;;;;;;;;;1837321;78;26317;-38
2022/02/04 07:10:35;;;;;;;0.30;0.30;;;;;;;;;;1827790;78;26543;-39
2022/02/04 07:13:06;;;;;;;0.30;0.30;;;;;;;;;;1834576;76;26314;-39
2022/02/04 07:15:43;;;;;;;0.85;0.62;;;;;;;;;;1841669;76;26287;-39
2022/02/04 07:19:44;;;;;;;0.50;0.20;;;;;;;;;;1834778;78;26687;-38
2022/02/04 07:20:26;;;;;;;0.50;0.50;;;;;;;;;;1829290;78;26777;-38
2022/02/04 07:22:54;;;;;;;0.45;0.45;;;;;;;;;;1839158;78;26358;-38
2022/02/04 07:25:22;;;;;;;0.40;0.20;;;;;;;;;;1841154;78;26650;-38
2022/02/04 07:27:49;;;;;;;0.40;0.40;;;;;;;;;;1843841;78;26213;-39
2022/02/04 07:30:16;;;;;;;0.82;0.40;;;;;;;;;;1844257;78;26261;-38
2022/02/04 07:32:56;;;;;;;0.30;0.30;;;;;;;;;;1842831;78;26259;-37
2022/02/04 07:35:35;;;;;;;0.40;0.40;;;;;;;;;;1839506;78;26913;-37
2022/02/04 07:40:53;;;;;;;1.27;0.42;;;;;;;;;;1836205;76;26939;-36
2022/02/04 07:43:21;;;;;;;0.70;0.55;;;;;;;;;;1840963;78;25678;-37
2022/02/04 07:45:49;;;;;;;0.50;0.50;;;;;;;;;;1839204;77;26247;-39
2022/02/04 07:48:16;;;;;;;0.80;0.33;;;;;;;;;;1840453;76;27655;-40
2022/02/04 07:50:45;;;;;;;0.93;0.40;;;;;;;;;;1843559;78;26318;-41
2022/02/04 07:53:13;;;;;;;0.25;0.25;;;;;;;;;;1831426;76;26271;-38
2022/02/04 07:55:40;;;;;;;0.50;0.50;;;;;;;;;;1844012;78;26299;-38
2022/02/04 07:58:10;;;;;;;0.50;0.50;;;;;;;;;;1842981;78;26241;-37
2022/02/04 08:00:39;;;;;;;0.30;0.30;;;;;;;;;;1843718;78;26357;-40
2022/02/04 08:03:25;;;;;;;2.02;0.50;;;;;;;;;;1838814;78;26708;-37
2022/02/04 08:05:36;;;;;;;2.80;0.57;;;;;;;;;;1833007;78;26271;-37
2022/02/04 08:08:17;;;;;;;0.57;0.57;;;;;;;;;;1837240;78;26291;-43
2022/02/04 08:10:43;;;;;;;0.47;0.47;;;;;;;;;;1834637;77;26221;-36
2022/02/04 08:39:29;;;;;;;0.60;0.60;;;;;;;;;;1836469;77;26407;-38
2022/02/04 08:55:07;;;;;;;1.27;0.45;;;;;;;;;;1837466;78;26360;-37
2022/02/04 09:02:39;;;;;;;0.50;0.50;;;;;;;;;;1838723;78;26376;-38
2022/02/04 09:05:08;;;;;;;0.57;0.50;;;;;;;;;;1833510;77;26328;-40
2022/02/04 09:07:49;;;;;;;1.75;0.60;;;;;;;;;;1831859;77;26328;-37
2022/02/04 09:10:13;;;;;;;1.30;0.60;;;;;;;;;;1821067;77;26287;-37
2022/02/04 09:18:20;;;;;;;0.55;0.55;;;;;;;;;;1840734;78;26697;-38
2022/02/04 09:23:02;;;;;;;4.10;0.40;;;;;;;;;;1835875;78;26245;-36
2022/02/04 09:25:29;;;;;;;1.70;0.50;;;;;;;;;;1841723;78;26304;-37
2022/02/04 09:27:57;;;;;;;0.40;0.40;;;;;;;;;;1829416;76;26273;-38
2022/02/04 09:30:25;;;;;;;0.57;0.57;;;;;;;;;;1843946;78;26262;-38
2022/02/04 09:32:52;;;;;;;2.52;0.62;;;;;;;;;;1839276;78;26322;-38
2022/02/04 09:35:25;;;;;;;0.50;0.50;;;;;;;;;;1841527;78;26329;-37
2022/02/04 09:37:53;;;;;;;0.70;0.60;;;;;;;;;;1837927;78;26229;-38
2022/02/04 09:40:21;;;;;;;0.50;0.50;;;;;;;;;;1839671;78;26318;-38
2022/02/04 09:42:49;;;;;;;0.70;0.57;;;;;;;;;;1843159;78;27461;-37
2022/02/04 09:45:19;;;;;;;0.75;0.53;;;;;;;;;;1843309;77;26264;-36
2022/02/04 09:47:50;;;;;;;0.55;0.55;;;;;;;;;;1841871;77;26645;-38
2022/02/04 09:50:21;;;;;;;1.70;0.70;;;;;;;;;;1828317;76;26692;-38
2022/02/04 10:12:50;;;;;;;0.50;0.50;;;;;;;;;;1837260;78;26662;-36
2022/02/04 10:15:12;;;;;;;0.50;0.50;;;;;;;;;;1829286;78;26256;-39
2022/02/04 10:17:38;;;;;;;0.40;0.40;;;;;;;;;;1813792;76;26287;-38
2022/02/04 10:20:01;;;;;;;0.60;0.57;;;;;;;;;;1834852;77;26710;-38
2022/02/04 10:22:30;;;;;;;0.60;0.60;;;;;;;;;;1835052;78;26314;-38
2022/02/04 10:25:02;;;;;;;0.85;0.75;;;;;;;;;;1836813;78;26276;-38
2022/02/04 10:27:31;;;;;;;1.95;0.60;;;;;;;;;;1828924;78;26271;-37
2022/02/04 10:30:09;;;;;;;0.55;0.55;;;;;;;;;;1835691;78;26308;-39
2022/02/04 10:32:46;;;;;;;0.60;0.55;;;;;;;;;;1828692;78;26206;-37
2022/02/04 10:35:24;;;;;;;0.98;0.40;;;;;;;;;;1826380;78;26758;-37
2022/02/04 10:38:21;;;;;;;1.10;1.10;;;;;;;;;;1837343;77;26258;-37
2022/02/04 10:43:46;;;;;;;1.32;0.60;;;;;;;;;;1832315;78;26354;-36
2022/02/04 10:59:09;;;;;;;6.62;1.10;;;;;;;;;;1830352;78;27069;-38
2022/02/04 11:04:02;;;;;;;1.90;0.88;;;;;;;;;;1836594;77;26856;-42
2022/02/04 11:06:48;;;;;;;2.02;0.90;;;;;;;;;;1836909;76;26338;-38
2022/02/04 11:09:23;;;;;;;0.90;0.90;;;;;;;;;;1831718;78;26900;-40
2022/02/04 11:12:00;;;;;;;7.15;1.00;;;;;;;;;;1836215;78;26280;-41
2022/02/04 11:33:47;;;;;;;0.70;0.70;;;;;;;;;;1839929;76;26328;-40
2022/02/04 11:36:01;;;;;;;0.70;0.70;;;;;;;;;;1837669;76;26279;-40
2022/02/04 11:52:26;;;;;;;1.17;0.72;;;;;;;;;;1829693;77;26409;-39
2022/02/04 11:55:00;;;;;;;0.98;0.80;;;;;;;;;;1841262;76;26340;-38
2022/02/04 11:57:20;;;;;;;0.80;0.80;;;;;;;;;;1836442;76;26350;-37
2022/02/04 11:59:49;;;;;;;0.78;0.78;;;;;;;;;;1839695;76;26229;-38
2022/02/04 12:02:29;;;;;;;1.47;0.80;;;;;;;;;;1841260;76;26786;-39
2022/02/04 12:05:15;;;;;;;1.42;0.62;;;;;;;;;;1837038;77;26322;-38
2022/02/04 12:07:43;;;;;;;1.27;0.70;;;;;;;;;;1843185;76;26793;-40
2022/02/04 12:10:15;;;;;;;0.82;0.60;;;;;;;;;;1843697;76;26391;-38
2022/02/04 12:12:56;;;;;;;0.60;0.60;;;;;;;;;;1843674;76;26212;-37
2022/02/04 12:15:32;;;;;;;0.78;0.53;;;;;;;;;;1836445;77;26395;-40
2022/02/04 12:18:01;;;;;;;0.60;0.50;;;;;;;;;;1834203;77;26343;-39
2022/02/04 12:20:57;;;;;;;0.60;0.60;;;;;;;;;;1837047;76;26341;-41
2022/02/04 12:23:43;;;;;;;0.50;0.50;;;;;;;;;;1841617;78;26269;-37
2022/02/04 12:26:24;;;;;;;1.55;0.60;;;;;;;;;;1840744;76;26346;-37
2022/02/04 12:28:56;;;;;;;0.57;0.57;;;;;;;;;;1843764;78;27195;-38
2022/02/04 12:31:25;;;;;;;0.70;0.70;;;;;;;;;;1842457;76;26374;-38
2022/02/04 12:33:54;;;;;;;1.00;0.60;;;;;;;;;;1843351;76;26350;-38
2022/02/04 12:36:23;;;;;;;0.55;0.55;;;;;;;;;;1829440;76;26294;-40
2022/02/04 12:38:52;;;;;;;0.60;0.60;;;;;;;;;;1833871;76;26943;-40
2022/02/04 12:41:21;;;;;;;3.40;0.75;;;;;;;;;;1841982;76;26537;-37
2022/02/04 12:43:49;;;;;;;0.70;0.60;;;;;;;;;;1840989;78;26382;-38
2022/02/04 12:46:17;;;;;;;0.53;0.50;;;;;;;;;;1828850;78;26271;-38
2022/02/04 12:49:02;;;;;;;0.60;0.60;;;;;;;;;;1844166;77;26740;-38
2022/02/04 12:51:33;;;;;;;3.08;0.72;;;;;;;;;;1839889;76;26391;-38
2022/02/04 12:54:00;;;;;;;0.50;0.50;;;;;;;;;;1813469;77;26362;-37
2022/02/04 12:57:04;;;;;;;0.60;0.60;;;;;;;;;;1832693;78;26302;-39
2022/02/04 12:59:52;;;;;;;1.37;0.50;;;;;;;;;;1828012;77;26358;-38
2022/02/04 13:02:17;;;;;;;0.68;0.68;;;;;;;;;;1829521;77;26299;-39
2022/02/04 13:07:44;;;;;;;2.17;0.50;;;;;;;;;;1833869;78;26366;-39
2022/02/04 13:10:08;;;;;;;4.47;0.70;;;;;;;;;;1842621;78;26319;-38
2022/02/04 13:12:51;;;;;;;3.10;0.53;;;;;;;;;;1838974;76;26933;-38
2022/02/04 13:15:19;;;;;;;0.50;0.50;;;;;;;;;;1842993;77;26283;-40
2022/02/04 13:17:46;;;;;;;0.60;0.60;;;;;;;;;;1839515;76;26287;-41
2022/02/04 13:20:21;;;;;;;0.40;0.40;;;;;;;;;;1839822;76;26283;-38
2022/02/04 13:22:44;;;;;;;1.62;0.42;;;;;;;;;;1842520;76;26305;-37
2022/02/04 13:25:15;;;;;;;0.50;0.50;;;;;;;;;;1838609;77;26264;-39
2022/02/04 13:28:01;;;;;;;0.40;0.40;;;;;;;;;;1840154;76;26299;-38
2022/02/04 13:30:30;;;;;;;0.50;0.50;;;;;;;;;;1843651;76;26291;-36
2022/02/04 13:32:58;;;;;;;0.90;0.60;;;;;;;;;;1842969;76;26759;-37
2022/02/04 13:35:27;;;;;;;0.40;0.37;;;;;;;;;;1840696;76;26260;-38
2022/02/04 13:38:00;;;;;;;0.40;0.40;;;;;;;;;;1833624;78;26311;-38
2022/02/04 13:40:34;;;;;;;0.50;0.50;;;;;;;;;;1844046;76;26407;-38
2022/02/04 13:43:03;;;;;;;0.60;0.60;;;;;;;;;;1838737;78;26329;-39
2022/02/04 13:45:32;;;;;;;0.50;0.50;;;;;;;;;;1827656;78;26992;-39
2022/02/04 13:48:07;;;;;;;0.65;0.37;;;;;;;;;;1841704;76;26385;-37
2022/02/04 13:50:43;;;;;;;1.22;0.40;;;;;;;;;;1840047;78;26701;-40
2022/02/04 13:53:12;;;;;;;0.40;0.40;;;;;;;;;;1834008;77;26347;-38
2022/02/04 13:55:39;;;;;;;0.40;0.40;;;;;;;;;;1836393;78;26799;-40
2022/02/04 13:58:17;;;;;;;0.30;0.30;;;;;;;;;;1842966;78;26269;-38
2022/02/04 14:03:22;;;;;;;0.33;0.33;;;;;;;;;;1828181;76;26272;-38
2022/02/04 14:06:00;;;;;;;0.60;0.30;;;;;;;;;;1838017;77;26265;-41
2022/02/04 14:08:33;;;;;;;0.45;0.45;;;;;;;;;;1842476;76;26379;-37
2022/02/04 14:11:01;;;;;;;0.50;0.45;;;;;;;;;;1843254;76;26232;-41
2022/02/04 14:13:28;;;;;;;0.50;0.50;;;;;;;;;;1843773;76;26910;-41
2022/02/04 14:15:58;;;;;;;1.75;0.40;;;;;;;;;;1835670;78;26330;-41
2022/02/04 14:18:27;;;;;;;0.88;0.30;;;;;;;;;;1834736;78;26044;-42
2022/02/04 14:20:55;;;;;;;0.80;0.50;;;;;;;;;;1840220;76;26799;-43
2022/02/04 14:23:24;;;;;;;0.37;0.37;;;;;;;;;;1840371;78;26227;-39
2022/02/04 14:26:02;;;;;;;0.30;0.30;;;;;;;;;;1839206;78;26266;-39
2022/02/04 14:28:39;;;;;;;0.47;0.47;;;;;;;;;;1842983;78;26228;-39
2022/02/04 14:31:11;;;;;;;0.30;0.30;;;;;;;;;;1837262;78;26394;-37
2022/02/04 14:50:13;;;;;;;1.45;0.30;;;;;;;;;;1824636;76;26818;-37
2022/02/04 14:52:27;;;;;;;0.30;0.30;;;;;;;;;;1832038;78;26350;-38
2022/02/04 15:00:30;;;;;;;1.02;0.47;;;;;;;;;;1840649;76;26336;-38
2022/02/04 15:02:47;;;;;;;0.40;0.37;;;;;;;;;;1841369;76;26272;-37
2022/02/04 15:05:17;;;;;;;1.47;0.35;;;;;;;;;;1828055;76;26575;-38
2022/02/04 15:07:43;;;;;;;0.30;0.30;;;;;;;;;;1843572;78;26360;-38
2022/02/04 15:10:15;;;;;;;1.20;0.40;;;;;;;;;;1844200;78;26453;-38
2022/02/04 15:12:39;;;;;;;0.20;0.20;;;;;;;;;;1842887;76;26274;-37
2022/02/04 15:15:07;;;;;;;0.50;0.50;;;;;;;;;;1843767;77;26342;-38
2022/02/04 15:17:35;;;;;;;0.62;0.40;;;;;;;;;;1844005;78;26256;-39
2022/02/04 15:20:02;;;;;;;0.30;0.30;;;;;;;;;;1844239;77;26341;-38
2022/02/04 15:22:29;;;;;;;0.30;0.30;;;;;;;;;;1844649;76;26299;-39
2022/02/04 15:25:04;;;;;;;0.30;0.30;;;;;;;;;;1843944;78;26330;-39
2022/02/04 15:27:27;;;;;;;1.35;0.30;;;;;;;;;;1833009;76;26380;-39
2022/02/04 15:29:54;;;;;;;0.42;0.42;;;;;;;;;;1828980;76;26237;-40
2022/02/04 15:32:22;;;;;;;3.08;0.40;;;;;;;;;;1833656;78;26266;-38
2022/02/04 15:34:52;;;;;;;0.23;0.23;;;;;;;;;;1843657;78;26342;-38
2022/02/04 15:37:18;;;;;;;0.30;0.30;;;;;;;;;;1843629;76;26780;-40
2022/02/04 15:39:46;;;;;;;2.05;0.30;;;;;;;;;;1834525;76;26865;-38
2022/02/04 15:42:15;;;;;;;1.65;0.40;;;;;;;;;;1837824;76;26306;-38
2022/02/04 15:44:58;;;;;;;0.30;0.30;;;;;;;;;;1836051;77;26225;-39
2022/02/04 15:47:35;;;;;;;0.40;0.40;;;;;;;;;;1836564;78;26292;-38
2022/02/04 15:50:17;;;;;;;0.33;0.20;;;;;;;;;;1837177;77;26266;-39
2022/02/04 15:57:55;;;;;;;1.10;0.40;;;;;;;;;;1825989;76;38545;-41
2022/02/04 16:03:19;;;;;;;0.40;0.40;;;;;;;;;;1842937;77;26372;-38
2022/02/04 16:05:32;;;;;;;0.72;0.40;;;;;;;;;;1838632;77;26394;-38
2022/02/04 16:07:59;;;;;;;0.30;0.30;;;;;;;;;;1828292;77;26372;-62
2022/02/04 16:10:48;;;;;;;0.35;0.30;;;;;;;;;;1829937;77;26213;-38
2022/02/04 16:13:10;;;;;;;0.90;0.50;;;;;;;;;;1825914;77;26277;-40
2022/02/04 16:18:05;;;;;;;0.65;0.37;;;;;;;;;;1819016;78;26428;-42
2022/02/04 16:23:31;;;;;;;0.35;0.30;;;;;;;;;;1829618;78;26895;-37
2022/02/04 16:28:44;;;;;;;1.20;0.40;;;;;;;;;;1829777;78;26320;-41
2022/02/04 16:31:14;;;;;;;0.47;0.47;;;;;;;;;;1837140;78;26281;-44
2022/02/04 16:33:43;;;;;;;0.35;0.33;;;;;;;;;;1831667;77;26299;-42
2022/02/04 16:36:18;;;;;;;0.40;0.40;;;;;;;;;;1827374;78;26260;-40
2022/02/04 16:38:52;;;;;;;0.60;0.30;;;;;;;;;;1834598;77;26325;-39
2022/02/04 16:41:19;;;;;;;1.07;0.45;;;;;;;;;;1838155;77;26288;-38
2022/02/04 16:43:45;;;;;;;3.08;0.30;;;;;;;;;;1837218;77;26681;-39
2022/02/04 16:46:12;;;;;;;0.40;0.40;;;;;;;;;;1836906;77;26330;-40
2022/02/04 16:48:40;;;;;;;10.13;0.40;;;;;;;;;;1832486;77;26284;-39
2022/02/04 16:51:07;;;;;;;0.65;0.30;;;;;;;;;;1837068;76;26303;-39
2022/02/04 16:53:35;;;;;;;0.30;0.23;;;;;;;;;;1837166;78;26213;-38
2022/02/04 16:56:04;;;;;;;0.47;0.40;;;;;;;;;;1837225;78;26270;-38
2022/02/04 16:58:31;;;;;;;0.35;0.28;;;;;;;;;;1835787;77;25659;-38
2022/02/04 17:00:59;;;;;;;0.17;0.17;;;;;;;;;;1835556;78;26265;-38
2022/02/04 17:03:27;;;;;;;0.85;0.50;;;;;;;;;;1826876;77;26704;-38
2022/02/04 17:05:57;;;;;;;0.30;0.30;;;;;;;;;;1833863;76;26398;-39
2022/02/04 17:08:33;;;;;;;0.70;0.42;;;;;;;;;;1834647;78;26228;-39
2022/02/04 17:10:54;;;;;;;0.53;0.40;;;;;;;;;;1832180;77;26316;-39
2022/02/04 17:13:23;;;;;;;0.37;0.30;;;;;;;;;;1832453;77;26378;-40
2022/02/04 17:15:50;;;;;;;0.30;0.30;;;;;;;;;;1835682;78;26309;-41
2022/02/04 17:18:18;;;;;;;0.30;0.30;;;;;;;;;;1826800;78;26357;-38
2022/02/04 17:20:47;;;;;;;0.40;0.40;;;;;;;;;;1823056;78;26264;-38
2022/02/04 17:23:15;;;;;;;0.50;0.50;;;;;;;;;;1828237;78;26779;-39
2022/02/04 17:25:44;;;;;;;0.33;0.33;;;;;;;;;;1836127;76;26694;-38
2022/02/04 17:28:12;;;;;;;1.07;0.40;;;;;;;;;;1820700;78;26783;-40
2022/02/04 17:30:39;;;;;;;0.40;0.40;;;;;;;;;;1829328;78;26815;-39
2022/02/04 17:33:07;;;;;;;0.30;0.30;;;;;;;;;;1833317;78;26276;-40
2022/02/04 17:35:34;;;;;;;0.40;0.40;;;;;;;;;;1827216;76;26272;-39
2022/02/04 17:38:02;;;;;;;0.72;0.45;;;;;;;;;;1830363;76;26370;-40
2022/02/04 17:40:30;;;;;;;0.20;0.20;;;;;;;;;;1835762;78;26569;-40
2022/02/04 17:42:59;;;;;;;0.30;0.30;;;;;;;;;;1835983;78;26567;-41
2022/02/04 17:45:27;;;;;;;0.35;0.35;;;;;;;;;;1835567;78;26760;-42
2022/02/04 17:48:20;;;;;;;0.40;0.40;;;;;;;;;;1835015;76;26317;-39
2022/02/04 17:50:48;;;;;;;0.28;0.28;;;;;;;;;;1826740;76;26279;-39
2022/02/04 17:53:14;;;;;;;0.45;0.33;;;;;;;;;;1833936;78;26393;-38
2022/02/04 17:55:44;;;;;;;0.40;0.40;;;;;;;;;;1826266;76;26342;-38
2022/02/04 17:58:25;;;;;;;0.42;0.42;;;;;;;;;;1834524;76;26720;-39
2022/02/04 18:01:15;;;;;;;0.42;0.42;;;;;;;;;;1833300;78;26343;-39
2022/02/04 18:06:12;;;;;;;0.50;0.50;;;;;;;;;;1834447;76;26299;-39
2022/02/04 18:08:35;;;;;;;0.40;0.40;;;;;;;;;;1789057;78;26346;-40
2022/02/04 18:11:04;;;;;;;0.30;0.30;;;;;;;;;;1792832;79;26695;-39
2022/02/04 18:13:33;;;;;;;0.62;0.40;;;;;;;;;;1789510;79;26818;-39
2022/02/04 18:16:03;;;;;;;0.50;0.50;;;;;;;;;;1792640;80;26266;-38
2022/02/04 18:18:31;;;;;;;0.40;0.40;;;;;;;;;;1792525;79;26568;-38
2022/02/04 18:21:01;;;;;;;0.35;0.35;;;;;;;;;;1791905;80;26341;-38
2022/02/04 18:23:28;;;;;;;1.75;0.30;;;;;;;;;;1791655;80;26348;-39
2022/02/04 18:25:56;;;;;;;2.72;0.82;;;;;;;;;;1792440;80;26368;-39
2022/02/04 18:28:24;;;;;;;0.20;0.20;;;;;;;;;;1792904;79;26294;-38
2022/02/04 18:30:52;;;;;;;0.30;0.30;;;;;;;;;;1792746;79;26345;-38
2022/02/04 18:33:20;;;;;;;0.70;0.42;;;;;;;;;;1784335;80;26294;-39
2022/02/04 18:35:56;;;;;;;0.30;0.30;;;;;;;;;;1787202;80;26284;-39
2022/02/04 18:38:24;;;;;;;1.12;0.40;;;;;;;;;;1787959;79;26738;-39
2022/02/04 18:46:30;;;;;;;1.85;0.57;;;;;;;;;;1787164;80;26735;-39
2022/02/04 18:48:57;;;;;;;0.62;0.53;;;;;;;;;;1786327;80;26275;-39
2022/02/04 18:51:41;;;;;;;0.60;0.60;;;;;;;;;;1786873;79;26794;-41
2022/02/04 18:59:05;;;;;;;0.40;0.40;;;;;;;;;;1758377;79;26302;-39
2022/02/04 19:01:31;;;;;;;1.00;0.30;;;;;;;;;;1792225;79;26263;-39
2022/02/04 19:04:03;;;;;;;1.65;0.42;;;;;;;;;;1784576;80;26275;-39
2022/02/04 19:06:34;;;;;;;3.58;0.57;;;;;;;;;;1790906;80;26435;-38
2022/02/04 19:08:59;;;;;;;0.75;0.40;;;;;;;;;;1809314;78;26309;-40
2022/02/04 19:11:33;;;;;;;0.40;0.40;;;;;;;;;;1810531;79;26745;-39
2022/02/04 19:14:09;;;;;;;0.55;0.47;;;;;;;;;;1810223;78;26307;-39
2022/02/04 19:19:28;;;;;;;1.85;0.60;;;;;;;;;;1752219;79;26833;-41
2022/02/04 19:21:59;;;;;;;3.42;0.68;;;;;;;;;;1810358;79;26255;-39
2022/02/04 19:24:22;;;;;;;3.50;0.50;;;;;;;;;;1808300;79;26286;-39
2022/02/04 19:26:49;;;;;;;1.05;0.50;;;;;;;;;;1807385;79;26286;-41
2022/02/04 19:29:16;;;;;;;0.47;0.40;;;;;;;;;;1808485;79;26290;-40
2022/02/04 19:31:51;;;;;;;2.15;0.50;;;;;;;;;;1811826;79;26328;-38
2022/02/04 19:34:13;;;;;;;0.40;0.40;;;;;;;;;;1806583;79;26259;-38
2022/02/04 19:36:40;;;;;;;0.90;0.40;;;;;;;;;;1810304;79;26238;-38
2022/02/04 19:39:08;;;;;;;2.08;0.40;;;;;;;;;;1809814;79;26298;-39
2022/02/04 19:41:35;;;;;;;1.40;0.42;;;;;;;;;;1809037;79;27358;-37
2022/02/04 19:44:03;;;;;;;2.45;0.55;;;;;;;;;;1811212;79;26314;-39
2022/02/04 19:46:35;;;;;;;0.40;0.35;;;;;;;;;;1810507;79;26577;-37
2022/02/04 19:49:04;;;;;;;0.47;0.47;;;;;;;;;;1810994;79;26283;-36
2022/02/04 19:51:48;;;;;;;1.35;0.60;;;;;;;;;;1810638;79;26305;-36
2022/02/04 20:26:56;;;;;;;0.40;0.40;;;;;;;;;;1812260;79;26503;-38
2022/02/04 20:29:23;;;;;;;0.50;0.50;;;;;;;;;;1812112;79;26270;-38
2022/02/04 20:31:51;;;;;;;1.10;0.30;;;;;;;;;;1809493;78;26324;-38
2022/02/04 20:34:18;;;;;;;3.65;0.50;;;;;;;;;;1807174;78;26251;-38
2022/02/04 20:36:45;;;;;;;3.85;0.70;;;;;;;;;;1811604;78;26247;-38
2022/02/04 20:39:16;;;;;;;4.28;0.50;;;;;;;;;;1808120;79;26216;-39
2022/02/04 20:41:42;;;;;;;8.05;0.60;;;;;;;;;;1811545;79;26415;-40
2022/02/04 20:44:09;;;;;;;0.40;0.37;;;;;;;;;;1812061;79;26275;-38
2022/02/04 20:46:37;;;;;;;2.75;0.37;;;;;;;;;;1808140;79;26295;-37
2022/02/04 20:49:08;;;;;;;2.85;0.40;;;;;;;;;;1812066;79;26263;-39
2022/02/04 20:51:33;;;;;;;0.30;0.30;;;;;;;;;;1811787;79;26779;-38
2022/02/04 20:54:00;;;;;;;1.27;0.47;;;;;;;;;;1809845;79;26252;-39
2022/02/04 20:56:28;;;;;;;2.25;0.57;;;;;;;;;;1812056;79;26317;-37
2022/02/04 20:58:55;;;;;;;0.72;0.60;;;;;;;;;;1812044;79;26833;-39
2022/02/04 21:01:23;;;;;;;1.37;0.30;;;;;;;;;;1812066;79;27239;-39
2022/02/04 21:03:52;;;;;;;0.70;0.28;;;;;;;;;;1809979;79;26291;-38
2022/02/04 21:06:45;;;;;;;2.05;0.25;;;;;;;;;;1811793;79;26266;-38
2022/02/04 21:14:55;;;;;;;0.33;0.15;;;;;;;;;;1810709;78;27360;-37
2022/02/04 21:17:04;;;;;;;0.40;0.40;;;;;;;;;;1804675;79;26348;-38